New Haven Heights, Indiana
Current Conditions -  °F | °C
As of 8:19 AM on Thursday 23 Oct 2014 (Local Time) from KFWA Reporting Station
Moderate Fog Moderate Fog  
Wind Chill: 31°   Ceiling: 100
Heat Index: 31°   Visibility: 0.12mi
Dew Point: 30°   Wind: 0mph
Humidity: 96%   Direction: NA
Pressure: 30.26"   Gusts: NA
Location:  41.0925°N, 84.9712°W
Report Text: KFWA 231219Z 00000KT 1/8SM FZFG VV001 M01/M01 A3026 RMK AO2 R05/0500FT T10061011 $
Loading
Personal Weather Stations






























Interactive Weather Map
Tropical Storm Tracking
New forecast layout! Learn more

10-Day Weather Forecast

Advertisements
Track Severe Weather on mobile